Glezen, Indiana
Current Conditions -  °F | °C
As of 12:55 AM on Sunday 26 Oct 2014 (Local Time) from KDCY Reporting Station
Clear Clear  
Wind Chill: 55°   Ceiling: Unl
Heat Index: 55°   Visibility: 10mi
Dew Point: 49°   Wind: 5mph
Humidity: 82%   Direction: 320°NW
Pressure: 29.98"   Gusts: NA
Location:  38.4723°N, 87.3105°W
Report Text: KDCY 260555Z AUTO 32004KT 10SM CLR 13/10 A2998 RMK AO2 T01270097 10189 20127 402530094
Loading
Personal Weather Stations






























Interactive Weather Map
Tropical Storm Tracking
New forecast layout! Learn more

10-Day Weather Forecast

Advertisements
Track Severe Weather on mobile